sensor_id;sensor_type;location;lat;lon;timestamp;temperature;humidity
69747;DHT22;57018;50.278;19.134;2023-12-29T00:00:49;9.10;99.90
69747;DHT22;57018;50.278;19.134;2023-12-29T00:03:18;9.10;99.90
69747;DHT22;57018;50.278;19.134;2023-12-29T00:05:48;8.90;99.90
69747;DHT22;57018;50.278;19.134;2023-12-29T00:08:18;9.20;99.90
69747;DHT22;57018;50.278;19.134;2023-12-29T00:10:48;9.10;99.90
69747;DHT22;57018;50.278;19.134;2023-12-29T00:13:18;9.10;99.90
69747;DHT22;57018;50.278;19.134;2023-12-29T00:15:55;9.00;99.90
69747;DHT22;57018;50.278;19.134;2023-12-29T00:18:25;9.00;99.90
69747;DHT22;57018;50.278;19.134;2023-12-29T00:20:54;9.20;99.90
69747;DHT22;57018;50.278;19.134;2023-12-29T00:23:24;9.10;99.90
69747;DHT22;57018;50.278;19.134;2023-12-29T00:25:54;8.90;99.90
69747;DHT22;57018;50.278;19.134;2023-12-29T00:28:24;9.10;99.90
69747;DHT22;57018;50.278;19.134;2023-12-29T00:30:54;9.10;99.90
69747;DHT22;57018;50.278;19.134;2023-12-29T00:33:24;9.00;99.90
69747;DHT22;57018;50.278;19.134;2023-12-29T00:35:55;9.00;99.90
69747;DHT22;57018;50.278;19.134;2023-12-29T00:38:26;9.00;99.90
69747;DHT22;57018;50.278;19.134;2023-12-29T00:40:56;9.10;99.90
69747;DHT22;57018;50.278;19.134;2023-12-29T00:43:25;9.10;99.90
69747;DHT22;57018;50.278;19.134;2023-12-29T00:45:55;9.20;99.90
69747;DHT22;57018;50.278;19.134;2023-12-29T00:48:25;9.20;99.90
69747;DHT22;57018;50.278;19.134;2023-12-29T00:51:00;9.10;99.90
69747;DHT22;57018;50.278;19.134;2023-12-29T00:53:30;9.20;99.90
69747;DHT22;57018;50.278;19.134;2023-12-29T00:56:02;9.20;99.90
69747;DHT22;57018;50.278;19.134;2023-12-29T00:58:32;9.10;99.90
69747;DHT22;57018;50.278;19.134;2023-12-29T01:01:02;9.10;99.90
69747;DHT22;57018;50.278;19.134;2023-12-29T01:03:32;9.20;99.90
69747;DHT22;57018;50.278;19.134;2023-12-29T01:06:02;9.10;99.90
69747;DHT22;57018;50.278;19.134;2023-12-29T01:08:32;9.00;99.90
69747;DHT22;57018;50.278;19.134;2023-12-29T01:11:03;9.20;99.90
69747;DHT22;57018;50.278;19.134;2023-12-29T01:13:33;9.00;99.90
69747;DHT22;57018;50.278;19.134;2023-12-29T01:16:03;9.30;99.90
69747;DHT22;57018;50.278;19.134;2023-12-29T01:18:33;9.20;99.90
69747;DHT22;57018;50.278;19.134;2023-12-29T01:21:02;9.10;99.90
69747;DHT22;57018;50.278;19.134;2023-12-29T01:23:32;9.10;99.90
69747;DHT22;57018;50.278;19.134;2023-12-29T01:26:01;9.20;99.90
69747;DHT22;57018;50.278;19.134;2023-12-29T01:28:32;9.10;99.90
69747;DHT22;57018;50.278;19.134;2023-12-29T01:31:02;8.90;99.90
69747;DHT22;57018;50.278;19.134;2023-12-29T01:33:32;9.10;99.90
69747;DHT22;57018;50.278;19.134;2023-12-29T01:36:02;9.10;99.90
69747;DHT22;57018;50.278;19.134;2023-12-29T01:38:32;9.10;99.90
69747;DHT22;57018;50.278;19.134;2023-12-29T01:41:02;9.00;99.90
69747;DHT22;57018;50.278;19.134;2023-12-29T01:43:32;8.90;99.90
69747;DHT22;57018;50.278;19.134;2023-12-29T01:46:02;8.60;99.90
69747;DHT22;57018;50.278;19.134;2023-12-29T01:48:32;8.70;99.90
69747;DHT22;57018;50.278;19.134;2023-12-29T01:51:02;8.60;99.90
69747;DHT22;57018;50.278;19.134;2023-12-29T01:53:35;8.50;99.90
69747;DHT22;57018;50.278;19.134;2023-12-29T01:56:06;8.40;99.90
69747;DHT22;57018;50.278;19.134;2023-12-29T01:58:37;8.30;99.90
69747;DHT22;57018;50.278;19.134;2023-12-29T02:01:08;8.30;99.90
69747;DHT22;57018;50.278;19.134;2023-12-29T02:03:38;8.30;99.90
69747;DHT22;57018;50.278;19.134;2023-12-29T02:06:10;8.40;99.90
69747;DHT22;57018;50.278;19.134;2023-12-29T02:08:41;8.40;99.90
69747;DHT22;57018;50.278;19.134;2023-12-29T02:11:11;8.10;99.90
69747;DHT22;57018;50.278;19.134;2023-12-29T02:13:42;8.10;99.90
69747;DHT22;57018;50.278;19.134;2023-12-29T02:16:17;8.10;99.90
69747;DHT22;57018;50.278;19.134;2023-12-29T02:18:50;8.10;99.90
69747;DHT22;57018;50.278;19.134;2023-12-29T02:21:24;8.20;99.90
69747;DHT22;57018;50.278;19.134;2023-12-29T02:23:54;8.00;99.90
69747;DHT22;57018;50.278;19.134;2023-12-29T02:26:29;8.10;99.90
69747;DHT22;57018;50.278;19.134;2023-12-29T02:29:05;7.80;99.90
69747;DHT22;57018;50.278;19.134;2023-12-29T02:31:40;7.90;99.90
69747;DHT22;57018;50.278;19.134;2023-12-29T02:34:15;7.90;99.90
69747;DHT22;57018;50.278;19.134;2023-12-29T02:36:48;7.90;99.90
69747;DHT22;57018;50.278;19.134;2023-12-29T02:39:19;8.00;99.90
69747;DHT22;57018;50.278;19.134;2023-12-29T02:41:49;8.00;99.90
69747;DHT22;57018;50.278;19.134;2023-12-29T02:44:19;8.00;99.90
69747;DHT22;57018;50.278;19.134;2023-12-29T02:46:51;8.00;99.90
69747;DHT22;57018;50.278;19.134;2023-12-29T02:49:21;7.90;99.90
69747;DHT22;57018;50.278;19.134;2023-12-29T02:51:51;7.90;99.90
69747;DHT22;57018;50.278;19.134;2023-12-29T02:54:20;7.90;99.90
69747;DHT22;57018;50.278;19.134;2023-12-29T02:56:50;8.00;99.90
69747;DHT22;57018;50.278;19.134;2023-12-29T02:59:18;8.20;99.90
69747;DHT22;57018;50.278;19.134;2023-12-29T03:01:50;8.00;99.90
69747;DHT22;57018;50.278;19.134;2023-12-29T03:04:20;8.10;99.90
69747;DHT22;57018;50.278;19.134;2023-12-29T03:06:50;8.10;99.90
69747;DHT22;57018;50.278;19.134;2023-12-29T03:09:20;8.10;99.90
69747;DHT22;57018;50.278;19.134;2023-12-29T03:11:52;8.10;99.90
69747;DHT22;57018;50.278;19.134;2023-12-29T03:14:22;8.20;99.90
69747;DHT22;57018;50.278;19.134;2023-12-29T03:16:52;8.30;99.90
69747;DHT22;57018;50.278;19.134;2023-12-29T03:19:22;8.30;99.90
69747;DHT22;57018;50.278;19.134;2023-12-29T03:21:52;8.40;99.90
69747;DHT22;57018;50.278;19.134;2023-12-29T03:24:27;8.20;99.90
69747;DHT22;57018;50.278;19.134;2023-12-29T03:26:55;8.20;99.90
69747;DHT22;57018;50.278;19.134;2023-12-29T03:29:25;8.30;99.90
69747;DHT22;57018;50.278;19.134;2023-12-29T03:31:55;8.00;99.90
69747;DHT22;57018;50.278;19.134;2023-12-29T03:34:25;8.00;99.90
69747;DHT22;57018;50.278;19.134;2023-12-29T03:36:55;8.10;99.90
69747;DHT22;57018;50.278;19.134;2023-12-29T03:39:25;8.10;99.90
69747;DHT22;57018;50.278;19.134;2023-12-29T03:41:57;8.00;99.90
69747;DHT22;57018;50.278;19.134;2023-12-29T03:44:27;8.10;99.90
69747;DHT22;57018;50.278;19.134;2023-12-29T03:46:57;7.90;99.90
69747;DHT22;57018;50.278;19.134;2023-12-29T03:49:26;8.00;99.90
69747;DHT22;57018;50.278;19.134;2023-12-29T03:51:56;7.80;99.90
69747;DHT22;57018;50.278;19.134;2023-12-29T03:54:26;7.80;99.90
69747;DHT22;57018;50.278;19.134;2023-12-29T03:56:58;7.90;99.90
69747;DHT22;57018;50.278;19.134;2023-12-29T03:59:28;8.00;99.90
69747;DHT22;57018;50.278;19.134;2023-12-29T04:01:58;7.80;99.90
69747;DHT22;57018;50.278;19.134;2023-12-29T04:04:28;7.90;99.90
69747;DHT22;57018;50.278;19.134;2023-12-29T04:06:58;7.90;99.90
69747;DHT22;57018;50.278;19.134;2023-12-29T04:09:30;7.80;99.90
69747;DHT22;57018;50.278;19.134;2023-12-29T04:12:01;7.90;99.90
69747;DHT22;57018;50.278;19.134;2023-12-29T04:14:30;7.90;99.90
69747;DHT22;57018;50.278;19.134;2023-12-29T04:17:00;7.80;99.90
69747;DHT22;57018;50.278;19.134;2023-12-29T04:19:32;7.90;99.90
69747;DHT22;57018;50.278;19.134;2023-12-29T04:22:02;7.80;99.90
69747;DHT22;57018;50.278;19.134;2023-12-29T04:24:31;7.80;99.90
69747;DHT22;57018;50.278;19.134;2023-12-29T04:27:01;7.70;99.90
69747;DHT22;57018;50.278;19.134;2023-12-29T04:29:31;7.80;99.90
69747;DHT22;57018;50.278;19.134;2023-12-29T04:32:01;7.80;99.90
69747;DHT22;57018;50.278;19.134;2023-12-29T04:34:31;7.80;99.90
69747;DHT22;57018;50.278;19.134;2023-12-29T04:37:01;7.90;99.90
69747;DHT22;57018;50.278;19.134;2023-12-29T04:39:31;7.90;99.90
69747;DHT22;57018;50.278;19.134;2023-12-29T04:42:02;8.00;99.90
69747;DHT22;57018;50.278;19.134;2023-12-29T04:44:33;7.70;99.90
69747;DHT22;57018;50.278;19.134;2023-12-29T04:47:04;7.90;99.90
69747;DHT22;57018;50.278;19.134;2023-12-29T04:49:34;7.90;99.90
69747;DHT22;57018;50.278;19.134;2023-12-29T04:52:06;7.90;99.90
69747;DHT22;57018;50.278;19.134;2023-12-29T04:54:36;8.00;99.90
69747;DHT22;57018;50.278;19.134;2023-12-29T04:57:08;7.90;99.90
69747;DHT22;57018;50.278;19.134;2023-12-29T04:59:38;7.90;99.90
69747;DHT22;57018;50.278;19.134;2023-12-29T05:02:10;8.00;99.90
69747;DHT22;57018;50.278;19.134;2023-12-29T05:04:40;8.10;99.90
69747;DHT22;57018;50.278;19.134;2023-12-29T05:07:11;8.00;99.90
69747;DHT22;57018;50.278;19.134;2023-12-29T05:09:41;8.30;99.90
69747;DHT22;57018;50.278;19.134;2023-12-29T05:12:10;8.50;99.90
69747;DHT22;57018;50.278;19.134;2023-12-29T05:14:40;8.30;99.90
69747;DHT22;57018;50.278;19.134;2023-12-29T05:17:10;8.40;99.90
69747;DHT22;57018;50.278;19.134;2023-12-29T05:19:43;8.40;99.90
69747;DHT22;57018;50.278;19.134;2023-12-29T05:22:13;8.70;99.90
69747;DHT22;57018;50.278;19.134;2023-12-29T05:24:46;8.80;99.90
69747;DHT22;57018;50.278;19.134;2023-12-29T05:27:15;8.90;99.90
69747;DHT22;57018;50.278;19.134;2023-12-29T05:29:45;8.80;99.90
69747;DHT22;57018;50.278;19.134;2023-12-29T05:32:18;8.90;99.90
69747;DHT22;57018;50.278;19.134;2023-12-29T05:34:47;9.10;99.90
69747;DHT22;57018;50.278;19.134;2023-12-29T05:37:17;9.00;99.90
69747;DHT22;57018;50.278;19.134;2023-12-29T05:39:50;9.10;99.90
69747;DHT22;57018;50.278;19.134;2023-12-29T05:42:19;9.10;99.90
69747;DHT22;57018;50.278;19.134;2023-12-29T05:44:49;9.20;99.90
69747;DHT22;57018;50.278;19.134;2023-12-29T05:47:20;9.20;99.90
69747;DHT22;57018;50.278;19.134;2023-12-29T05:49:49;9.20;99.90
69747;DHT22;57018;50.278;19.134;2023-12-29T05:52:20;9.30;99.90
69747;DHT22;57018;50.278;19.134;2023-12-29T05:54:50;9.20;99.90
69747;DHT22;57018;50.278;19.134;2023-12-29T05:57:20;9.20;99.90
69747;DHT22;57018;50.278;19.134;2023-12-29T05:59:50;9.20;99.90
69747;DHT22;57018;50.278;19.134;2023-12-29T06:02:22;9.30;99.90
69747;DHT22;57018;50.278;19.134;2023-12-29T06:04:52;9.30;99.90
69747;DHT22;57018;50.278;19.134;2023-12-29T06:07:22;9.30;99.90
69747;DHT22;57018;50.278;19.134;2023-12-29T06:09:52;9.40;99.90
69747;DHT22;57018;50.278;19.134;2023-12-29T06:12:22;9.30;99.90
69747;DHT22;57018;50.278;19.134;2023-12-29T06:14:51;9.20;99.90
69747;DHT22;57018;50.278;19.134;2023-12-29T06:17:21;9.30;99.90
69747;DHT22;57018;50.278;19.134;2023-12-29T06:19:51;9.40;99.90
69747;DHT22;57018;50.278;19.134;2023-12-29T06:22:21;9.40;99.90
69747;DHT22;57018;50.278;19.134;2023-12-29T06:24:51;9.50;99.90
69747;DHT22;57018;50.278;19.134;2023-12-29T06:27:21;9.60;99.90
69747;DHT22;57018;50.278;19.134;2023-12-29T06:29:51;9.60;99.90
69747;DHT22;57018;50.278;19.134;2023-12-29T06:32:20;9.50;99.90
69747;DHT22;57018;50.278;19.134;2023-12-29T06:34:50;9.50;99.90
69747;DHT22;57018;50.278;19.134;2023-12-29T06:37:18;9.50;99.90
69747;DHT22;57018;50.278;19.134;2023-12-29T06:39:48;9.50;99.90
69747;DHT22;57018;50.278;19.134;2023-12-29T06:42:21;9.60;99.90
69747;DHT22;57018;50.278;19.134;2023-12-29T06:44:51;9.40;99.90
69747;DHT22;57018;50.278;19.134;2023-12-29T06:47:21;9.40;99.90
69747;DHT22;57018;50.278;19.134;2023-12-29T06:49:51;9.40;99.90
69747;DHT22;57018;50.278;19.134;2023-12-29T06:52:24;9.30;99.90
69747;DHT22;57018;50.278;19.134;2023-12-29T06:54:55;9.30;99.90
69747;DHT22;57018;50.278;19.134;2023-12-29T06:57:25;9.20;99.90
69747;DHT22;57018;50.278;19.134;2023-12-29T06:59:56;9.20;99.90
69747;DHT22;57018;50.278;19.134;2023-12-29T07:02:26;9.20;99.90
69747;DHT22;57018;50.278;19.134;2023-12-29T07:04:54;9.00;99.90
69747;DHT22;57018;50.278;19.134;2023-12-29T07:07:24;9.20;99.90
69747;DHT22;57018;50.278;19.134;2023-12-29T07:09:54;9.20;99.90
69747;DHT22;57018;50.278;19.134;2023-12-29T07:12:23;9.30;99.90
69747;DHT22;57018;50.278;19.134;2023-12-29T07:14:53;9.40;99.90
69747;DHT22;57018;50.278;19.134;2023-12-29T07:17:23;9.50;99.90
69747;DHT22;57018;50.278;19.134;2023-12-29T07:19:53;9.60;99.90
69747;DHT22;57018;50.278;19.134;2023-12-29T07:22:23;9.90;99.90
69747;DHT22;57018;50.278;19.134;2023-12-29T07:24:52;10.20;99.90
69747;DHT22;57018;50.278;19.134;2023-12-29T07:27:22;10.80;99.90
69747;DHT22;57018;50.278;19.134;2023-12-29T07:29:52;11.30;99.90
69747;DHT22;57018;50.278;19.134;2023-12-29T07:32:22;12.10;98.70
69747;DHT22;57018;50.278;19.134;2023-12-29T07:34:52;12.70;88.70
69747;DHT22;57018;50.278;19.134;2023-12-29T07:37:22;13.40;86.10
69747;DHT22;57018;50.278;19.134;2023-12-29T07:39:55;14.20;80.50
69747;DHT22;57018;50.278;19.134;2023-12-29T07:42:25;14.50;76.50
69747;DHT22;57018;50.278;19.134;2023-12-29T07:44:56;14.70;74.10
69747;DHT22;57018;50.278;19.134;2023-12-29T07:47:28;14.80;72.90
69747;DHT22;57018;50.278;19.134;2023-12-29T07:49:58;14.90;71.60
69747;DHT22;57018;50.278;19.134;2023-12-29T07:52:27;15.00;70.10
69747;DHT22;57018;50.278;19.134;2023-12-29T07:54:57;15.00;67.80
69747;DHT22;57018;50.278;19.134;2023-12-29T07:57:28;15.00;68.20
69747;DHT22;57018;50.278;19.134;2023-12-29T07:59:58;15.00;67.70
69747;DHT22;57018;50.278;19.134;2023-12-29T08:02:27;14.90;67.70
69747;DHT22;57018;50.278;19.134;2023-12-29T08:05:00;15.00;67.70
69747;DHT22;57018;50.278;19.134;2023-12-29T08:07:29;14.90;67.80
69747;DHT22;57018;50.278;19.134;2023-12-29T08:10:02;14.80;68.20
69747;DHT22;57018;50.278;19.134;2023-12-29T08:12:36;14.70;68.30
69747;DHT22;57018;50.278;19.134;2023-12-29T08:15:08;14.60;68.70
69747;DHT22;57018;50.278;19.134;2023-12-29T08:17:40;14.60;69.20
69747;DHT22;57018;50.278;19.134;2023-12-29T08:20:12;14.70;69.30
69747;DHT22;57018;50.278;19.134;2023-12-29T08:22:44;14.90;68.60
69747;DHT22;57018;50.278;19.134;2023-12-29T08:25:14;15.20;67.20
69747;DHT22;57018;50.278;19.134;2023-12-29T08:27:44;15.40;65.70
69747;DHT22;57018;50.278;19.134;2023-12-29T08:30:14;15.60;63.50
69747;DHT22;57018;50.278;19.134;2023-12-29T08:32:44;16.00;62.30
69747;DHT22;57018;50.278;19.134;2023-12-29T08:35:18;16.30;61.00
69747;DHT22;57018;50.278;19.134;2023-12-29T08:37:47;16.60;59.50
69747;DHT22;57018;50.278;19.134;2023-12-29T08:40:17;16.90;58.20
69747;DHT22;57018;50.278;19.134;2023-12-29T08:42:48;17.10;56.70
69747;DHT22;57018;50.278;19.134;2023-12-29T08:45:18;17.30;56.10
69747;DHT22;57018;50.278;19.134;2023-12-29T08:47:51;17.10;55.70
69747;DHT22;57018;50.278;19.134;2023-12-29T08:50:23;16.80;56.10
69747;DHT22;57018;50.278;19.134;2023-12-29T08:52:53;16.50;57.40
69747;DHT22;57018;50.278;19.134;2023-12-29T08:55:23;16.30;58.00
69747;DHT22;57018;50.278;19.134;2023-12-29T08:57:53;16.30;58.80
69747;DHT22;57018;50.278;19.134;2023-12-29T09:00:23;16.50;58.30
69747;DHT22;57018;50.278;19.134;2023-12-29T09:02:53;16.70;57.30
69747;DHT22;57018;50.278;19.134;2023-12-29T09:05:23;16.80;56.90
69747;DHT22;57018;50.278;19.134;2023-12-29T09:07:53;16.90;56.40
69747;DHT22;57018;50.278;19.134;2023-12-29T09:10:23;16.80;56.20
69747;DHT22;57018;50.278;19.134;2023-12-29T09:12:53;16.70;56.50
69747;DHT22;57018;50.278;19.134;2023-12-29T09:15:23;16.70;56.80
69747;DHT22;57018;50.278;19.134;2023-12-29T09:17:53;16.60;57.10
69747;DHT22;57018;50.278;19.134;2023-12-29T09:20:23;16.60;57.40
69747;DHT22;57018;50.278;19.134;2023-12-29T09:22:55;16.70;57.30
69747;DHT22;57018;50.278;19.134;2023-12-29T09:25:27;16.60;57.00
69747;DHT22;57018;50.278;19.134;2023-12-29T09:27:58;16.60;57.20
69747;DHT22;57018;50.278;19.134;2023-12-29T09:30:28;16.60;57.30
69747;DHT22;57018;50.278;19.134;2023-12-29T09:32:58;16.90;57.00
69747;DHT22;57018;50.278;19.134;2023-12-29T09:35:28;17.10;56.60
69747;DHT22;57018;50.278;19.134;2023-12-29T09:37:58;17.40;55.60
69747;DHT22;57018;50.278;19.134;2023-12-29T09:40:32;17.80;54.30
69747;DHT22;57018;50.278;19.134;2023-12-29T09:43:04;18.00;53.00
69747;DHT22;57018;50.278;19.134;2023-12-29T09:45:35;18.00;52.50
69747;DHT22;57018;50.278;19.134;2023-12-29T09:48:09;17.90;52.80
69747;DHT22;57018;50.278;19.134;2023-12-29T09:50:41;17.80;52.30
69747;DHT22;57018;50.278;19.134;2023-12-29T09:53:14;17.60;53.40
69747;DHT22;57018;50.278;19.134;2023-12-29T09:55:46;17.50;53.80
69747;DHT22;57018;50.278;19.134;2023-12-29T09:58:18;17.50;53.60
69747;DHT22;57018;50.278;19.134;2023-12-29T10:00:50;17.40;53.80
69747;DHT22;57018;50.278;19.134;2023-12-29T10:03:21;17.30;54.10
69747;DHT22;57018;50.278;19.134;2023-12-29T10:05:53;17.40;54.60
69747;DHT22;57018;50.278;19.134;2023-12-29T10:08:26;17.40;54.30
69747;DHT22;57018;50.278;19.134;2023-12-29T10:11:00;17.40;54.50
69747;DHT22;57018;50.278;19.134;2023-12-29T10:13:30;17.30;54.80
69747;DHT22;57018;50.278;19.134;2023-12-29T10:16:07;17.10;55.10
69747;DHT22;57018;50.278;19.134;2023-12-29T10:18:45;17.00;55.50
69747;DHT22;57018;50.278;19.134;2023-12-29T10:21:29;16.90;55.70
69747;DHT22;57018;50.278;19.134;2023-12-29T10:24:05;16.80;55.80
69747;DHT22;57018;50.278;19.134;2023-12-29T10:26:39;16.60;56.50
69747;DHT22;57018;50.278;19.134;2023-12-29T10:29:09;16.30;57.70
69747;DHT22;57018;50.278;19.134;2023-12-29T10:31:40;16.10;58.60
69747;DHT22;57018;50.278;19.134;2023-12-29T10:34:23;15.80;59.70
69747;DHT22;57018;50.278;19.134;2023-12-29T10:36:58;15.50;60.30
69747;DHT22;57018;50.278;19.134;2023-12-29T10:39:29;15.30;62.90
69747;DHT22;57018;50.278;19.134;2023-12-29T10:42:07;15.10;64.20
69747;DHT22;57018;50.278;19.134;2023-12-29T10:44:38;15.00;65.30
69747;DHT22;57018;50.278;19.134;2023-12-29T10:47:11;14.80;66.40
69747;DHT22;57018;50.278;19.134;2023-12-29T10:49:43;14.70;67.50
69747;DHT22;57018;50.278;19.134;2023-12-29T10:52:16;14.50;68.40
69747;DHT22;57018;50.278;19.134;2023-12-29T10:54:46;14.50;68.60
69747;DHT22;57018;50.278;19.134;2023-12-29T10:57:16;14.40;69.40
69747;DHT22;57018;50.278;19.134;2023-12-29T10:59:55;14.40;69.80
69747;DHT22;57018;50.278;19.134;2023-12-29T11:02:26;14.30;70.60
69747;DHT22;57018;50.278;19.134;2023-12-29T11:05:02;14.20;70.80
69747;DHT22;57018;50.278;19.134;2023-12-29T11:07:37;14.20;71.90
69747;DHT22;57018;50.278;19.134;2023-12-29T11:10:09;14.10;72.20
69747;DHT22;57018;50.278;19.134;2023-12-29T11:12:39;14.00;72.90
69747;DHT22;57018;50.278;19.134;2023-12-29T11:15:10;13.80;73.80
69747;DHT22;57018;50.278;19.134;2023-12-29T11:17:43;13.80;75.00
69747;DHT22;57018;50.278;19.134;2023-12-29T11:20:25;13.80;75.50
69747;DHT22;57018;50.278;19.134;2023-12-29T11:22:55;13.70;75.30
69747;DHT22;57018;50.278;19.134;2023-12-29T11:25:24;13.60;75.90
69747;DHT22;57018;50.278;19.134;2023-12-29T11:27:55;13.50;76.50
69747;DHT22;57018;50.278;19.134;2023-12-29T11:30:26;13.50;76.90
69747;DHT22;57018;50.278;19.134;2023-12-29T11:32:59;13.60;76.90
69747;DHT22;57018;50.278;19.134;2023-12-29T11:35:37;13.70;76.60
69747;DHT22;57018;50.278;19.134;2023-12-29T11:38:33;13.60;76.90
69747;DHT22;57018;50.278;19.134;2023-12-29T11:41:13;13.70;76.90
69747;DHT22;57018;50.278;19.134;2023-12-29T11:43:44;13.70;76.50
69747;DHT22;57018;50.278;19.134;2023-12-29T11:46:37;13.60;76.80
69747;DHT22;57018;50.278;19.134;2023-12-29T11:49:07;13.70;76.60
69747;DHT22;57018;50.278;19.134;2023-12-29T11:51:41;13.70;76.70
69747;DHT22;57018;50.278;19.134;2023-12-29T11:54:21;13.70;76.80
69747;DHT22;57018;50.278;19.134;2023-12-29T11:56:51;13.70;76.40
69747;DHT22;57018;50.278;19.134;2023-12-29T11:59:22;13.80;76.50
69747;DHT22;57018;50.278;19.134;2023-12-29T12:01:54;13.70;76.80
69747;DHT22;57018;50.278;19.134;2023-12-29T12:04:40;13.70;76.60
69747;DHT22;57018;50.278;19.134;2023-12-29T12:07:15;13.60;76.70
69747;DHT22;57018;50.278;19.134;2023-12-29T12:09:45;13.50;77.00
69747;DHT22;57018;50.278;19.134;2023-12-29T12:12:42;13.30;77.60
69747;DHT22;57018;50.278;19.134;2023-12-29T12:17:56;13.50;77.60
69747;DHT22;57018;50.278;19.134;2023-12-29T12:20:27;13.50;77.40
69747;DHT22;57018;50.278;19.134;2023-12-29T12:23:00;13.50;77.10
69747;DHT22;57018;50.278;19.134;2023-12-29T12:25:31;13.40;77.50
69747;DHT22;57018;50.278;19.134;2023-12-29T12:28:07;13.60;77.80
69747;DHT22;57018;50.278;19.134;2023-12-29T12:30:37;13.60;77.90
69747;DHT22;57018;50.278;19.134;2023-12-29T12:33:10;13.60;77.50
69747;DHT22;57018;50.278;19.134;2023-12-29T12:35:42;13.50;77.30
69747;DHT22;57018;50.278;19.134;2023-12-29T12:38:16;13.50;77.50
69747;DHT22;57018;50.278;19.134;2023-12-29T12:40:50;13.40;77.70
69747;DHT22;57018;50.278;19.134;2023-12-29T12:43:22;13.20;77.50
69747;DHT22;57018;50.278;19.134;2023-12-29T12:46:02;13.10;77.80
69747;DHT22;57018;50.278;19.134;2023-12-29T12:48:39;13.10;78.50
69747;DHT22;57018;50.278;19.134;2023-12-29T12:51:11;13.00;78.90
69747;DHT22;57018;50.278;19.134;2023-12-29T12:53:43;12.90;78.90
69747;DHT22;57018;50.278;19.134;2023-12-29T12:56:16;12.80;79.60
69747;DHT22;57018;50.278;19.134;2023-12-29T12:58:48;12.80;79.50
69747;DHT22;57018;50.278;19.134;2023-12-29T13:01:18;12.70;80.80
69747;DHT22;57018;50.278;19.134;2023-12-29T13:03:48;12.70;80.00
69747;DHT22;57018;50.278;19.134;2023-12-29T13:06:19;12.60;81.80
69747;DHT22;57018;50.278;19.134;2023-12-29T13:08:51;12.60;82.30
69747;DHT22;57018;50.278;19.134;2023-12-29T13:11:24;12.60;82.20
69747;DHT22;57018;50.278;19.134;2023-12-29T13:13:54;12.50;82.30
69747;DHT22;57018;50.278;19.134;2023-12-29T13:16:32;12.40;82.60
69747;DHT22;57018;50.278;19.134;2023-12-29T13:19:18;12.40;82.80
69747;DHT22;57018;50.278;19.134;2023-12-29T13:21:49;12.30;83.20
69747;DHT22;57018;50.278;19.134;2023-12-29T13:24:20;12.30;83.50
69747;DHT22;57018;50.278;19.134;2023-12-29T13:26:51;12.20;83.80
69747;DHT22;57018;50.278;19.134;2023-12-29T13:29:23;12.30;83.90
69747;DHT22;57018;50.278;19.134;2023-12-29T13:31:57;12.10;84.10
69747;DHT22;57018;50.278;19.134;2023-12-29T13:34:35;12.10;84.50
69747;DHT22;57018;50.278;19.134;2023-12-29T13:37:17;12.00;84.60
69747;DHT22;57018;50.278;19.134;2023-12-29T13:39:55;12.00;85.10
69747;DHT22;57018;50.278;19.134;2023-12-29T13:42:29;12.00;85.60
69747;DHT22;57018;50.278;19.134;2023-12-29T13:45:04;11.90;85.80
69747;DHT22;57018;50.278;19.134;2023-12-29T13:47:35;11.80;86.70
69747;DHT22;57018;50.278;19.134;2023-12-29T13:50:10;11.80;86.70
69747;DHT22;57018;50.278;19.134;2023-12-29T13:52:40;11.90;86.70
69747;DHT22;57018;50.278;19.134;2023-12-29T13:55:11;11.70;87.10
69747;DHT22;57018;50.278;19.134;2023-12-29T13:57:43;11.60;88.20
69747;DHT22;57018;50.278;19.134;2023-12-29T14:00:18;11.60;88.30
69747;DHT22;57018;50.278;19.134;2023-12-29T14:03:01;11.50;88.30
69747;DHT22;57018;50.278;19.134;2023-12-29T14:05:39;11.50;91.50
69747;DHT22;57018;50.278;19.134;2023-12-29T14:08:18;11.50;92.50
69747;DHT22;57018;50.278;19.134;2023-12-29T14:10:48;11.50;92.70
69747;DHT22;57018;50.278;19.134;2023-12-29T14:13:18;11.40;92.70
69747;DHT22;57018;50.278;19.134;2023-12-29T14:15:49;11.50;92.50
69747;DHT22;57018;50.278;19.134;2023-12-29T14:18:36;11.60;92.10
69747;DHT22;57018;50.278;19.134;2023-12-29T14:21:23;11.60;91.00
69747;DHT22;57018;50.278;19.134;2023-12-29T14:24:08;11.60;90.70
69747;DHT22;57018;50.278;19.134;2023-12-29T14:26:39;11.50;91.20
69747;DHT22;57018;50.278;19.134;2023-12-29T14:29:15;11.40;91.40
69747;DHT22;57018;50.278;19.134;2023-12-29T14:31:49;11.50;91.00
69747;DHT22;57018;50.278;19.134;2023-12-29T14:34:21;11.40;91.00
69747;DHT22;57018;50.278;19.134;2023-12-29T14:36:54;11.40;91.80
69747;DHT22;57018;50.278;19.134;2023-12-29T14:39:24;11.30;92.20
69747;DHT22;57018;50.278;19.134;2023-12-29T14:41:53;11.10;93.20
69747;DHT22;57018;50.278;19.134;2023-12-29T14:44:26;11.20;94.20
69747;DHT22;57018;50.278;19.134;2023-12-29T14:46:56;11.10;94.90
69747;DHT22;57018;50.278;19.134;2023-12-29T14:49:29;11.00;95.30
69747;DHT22;57018;50.278;19.134;2023-12-29T14:51:58;11.00;96.20
69747;DHT22;57018;50.278;19.134;2023-12-29T14:54:28;11.00;96.40
69747;DHT22;57018;50.278;19.134;2023-12-29T14:57:00;10.80;96.90
69747;DHT22;57018;50.278;19.134;2023-12-29T14:59:30;10.80;97.60
69747;DHT22;57018;50.278;19.134;2023-12-29T15:02:00;10.80;97.90
69747;DHT22;57018;50.278;19.134;2023-12-29T15:04:30;10.80;99.40
69747;DHT22;57018;50.278;19.134;2023-12-29T15:07:00;10.70;99.30
69747;DHT22;57018;50.278;19.134;2023-12-29T15:09:30;10.70;99.40
69747;DHT22;57018;50.278;19.134;2023-12-29T15:12:03;10.60;99.60
69747;DHT22;57018;50.278;19.134;2023-12-29T15:14:33;10.70;99.90
69747;DHT22;57018;50.278;19.134;2023-12-29T15:17:03;10.70;99.90
69747;DHT22;57018;50.278;19.134;2023-12-29T15:19:33;10.70;99.90
69747;DHT22;57018;50.278;19.134;2023-12-29T15:22:03;10.80;99.90
69747;DHT22;57018;50.278;19.134;2023-12-29T15:24:33;10.70;99.90
69747;DHT22;57018;50.278;19.134;2023-12-29T15:27:04;10.60;99.90
69747;DHT22;57018;50.278;19.134;2023-12-29T15:29:34;10.60;99.90
69747;DHT22;57018;50.278;19.134;2023-12-29T15:32:05;10.60;99.90
69747;DHT22;57018;50.278;19.134;2023-12-29T15:34:35;10.60;99.90
69747;DHT22;57018;50.278;19.134;2023-12-29T15:37:03;10.60;99.90
69747;DHT22;57018;50.278;19.134;2023-12-29T15:39:34;10.50;99.90
69747;DHT22;57018;50.278;19.134;2023-12-29T15:42:05;10.50;99.90
69747;DHT22;57018;50.278;19.134;2023-12-29T15:44:36;10.50;99.90
69747;DHT22;57018;50.278;19.134;2023-12-29T15:47:08;10.40;99.90
69747;DHT22;57018;50.278;19.134;2023-12-29T15:49:39;10.30;99.90
69747;DHT22;57018;50.278;19.134;2023-12-29T15:52:09;10.50;99.90